sensor_id;sensor_type;location;lat;lon;timestamp;temperature;humidity
23233;DHT22;11785;49.500;8.288;2022-10-16T00:01:56;15.90;99.90
23233;DHT22;11785;49.500;8.288;2022-10-16T00:04:22;15.80;99.90
23233;DHT22;11785;49.500;8.288;2022-10-16T00:06:48;15.80;99.90
23233;DHT22;11785;49.500;8.288;2022-10-16T00:09:13;15.80;99.90
23233;DHT22;11785;49.500;8.288;2022-10-16T00:11:40;15.80;99.90
23233;DHT22;11785;49.500;8.288;2022-10-16T00:14:11;15.80;99.90
23233;DHT22;11785;49.500;8.288;2022-10-16T00:16:37;15.70;99.90
23233;DHT22;11785;49.500;8.288;2022-10-16T00:19:03;15.70;99.90
23233;DHT22;11785;49.500;8.288;2022-10-16T00:21:30;15.70;99.90
23233;DHT22;11785;49.500;8.288;2022-10-16T00:23:58;15.70;99.90
23233;DHT22;11785;49.500;8.288;2022-10-16T00:26:24;15.70;99.90
23233;DHT22;11785;49.500;8.288;2022-10-16T00:28:51;15.80;99.90
23233;DHT22;11785;49.500;8.288;2022-10-16T00:31:18;15.70;99.90
23233;DHT22;11785;49.500;8.288;2022-10-16T00:33:44;15.70;99.90
23233;DHT22;11785;49.500;8.288;2022-10-16T00:36:12;15.70;99.90
23233;DHT22;11785;49.500;8.288;2022-10-16T00:38:38;15.70;99.90
23233;DHT22;11785;49.500;8.288;2022-10-16T00:41:09;15.70;99.90
23233;DHT22;11785;49.500;8.288;2022-10-16T00:46:31;15.70;99.90
23233;DHT22;11785;49.500;8.288;2022-10-16T00:49:01;15.80;99.90
23233;DHT22;11785;49.500;8.288;2022-10-16T00:51:35;15.80;99.90
23233;DHT22;11785;49.500;8.288;2022-10-16T00:54:04;15.80;99.90
23233;DHT22;11785;49.500;8.288;2022-10-16T00:56:31;15.80;99.90
23233;DHT22;11785;49.500;8.288;2022-10-16T00:58:58;15.90;99.90
23233;DHT22;11785;49.500;8.288;2022-10-16T01:01:25;15.90;99.90
23233;DHT22;11785;49.500;8.288;2022-10-16T01:03:50;15.80;99.90
23233;DHT22;11785;49.500;8.288;2022-10-16T01:06:25;15.80;99.90
23233;DHT22;11785;49.500;8.288;2022-10-16T01:12:01;15.90;99.90
23233;DHT22;11785;49.500;8.288;2022-10-16T01:17:06;15.80;99.90
23233;DHT22;11785;49.500;8.288;2022-10-16T01:19:44;15.80;99.90
23233;DHT22;11785;49.500;8.288;2022-10-16T01:22:16;15.70;99.90
23233;DHT22;11785;49.500;8.288;2022-10-16T01:24:46;15.80;99.90
23233;DHT22;11785;49.500;8.288;2022-10-16T01:27:27;15.80;99.90
23233;DHT22;11785;49.500;8.288;2022-10-16T01:32:36;15.80;99.90
23233;DHT22;11785;49.500;8.288;2022-10-16T01:35:30;15.70;99.90
23233;DHT22;11785;49.500;8.288;2022-10-16T01:38:08;15.70;99.90
23233;DHT22;11785;49.500;8.288;2022-10-16T01:40:38;15.70;99.90
23233;DHT22;11785;49.500;8.288;2022-10-16T01:43:35;15.70;99.90
23233;DHT22;11785;49.500;8.288;2022-10-16T01:46:03;15.60;99.90
23233;DHT22;11785;49.500;8.288;2022-10-16T01:48:29;15.60;99.90
23233;DHT22;11785;49.500;8.288;2022-10-16T01:51:14;15.60;99.90
23233;DHT22;11785;49.500;8.288;2022-10-16T01:53:42;15.60;99.90
23233;DHT22;11785;49.500;8.288;2022-10-16T01:56:11;15.60;99.90
23233;DHT22;11785;49.500;8.288;2022-10-16T01:58:43;15.60;99.90
23233;DHT22;11785;49.500;8.288;2022-10-16T02:01:11;15.60;99.90
23233;DHT22;11785;49.500;8.288;2022-10-16T02:03:40;15.60;99.90
23233;DHT22;11785;49.500;8.288;2022-10-16T02:06:07;15.50;99.90
23233;DHT22;11785;49.500;8.288;2022-10-16T02:08:33;15.50;99.90
23233;DHT22;11785;49.500;8.288;2022-10-16T02:11:00;15.50;99.90
23233;DHT22;11785;49.500;8.288;2022-10-16T02:13:31;15.50;99.90
23233;DHT22;11785;49.500;8.288;2022-10-16T02:15:58;15.50;99.90
23233;DHT22;11785;49.500;8.288;2022-10-16T02:18:25;15.50;99.90
23233;DHT22;11785;49.500;8.288;2022-10-16T02:21:01;15.50;99.90
23233;DHT22;11785;49.500;8.288;2022-10-16T02:26:16;15.50;99.90
23233;DHT22;11785;49.500;8.288;2022-10-16T02:28:54;15.50;99.90
23233;DHT22;11785;49.500;8.288;2022-10-16T02:31:27;15.50;99.90
23233;DHT22;11785;49.500;8.288;2022-10-16T02:33:56;15.60;99.90
23233;DHT22;11785;49.500;8.288;2022-10-16T02:36:23;15.60;99.90
23233;DHT22;11785;49.500;8.288;2022-10-16T02:38:49;15.60;99.90
23233;DHT22;11785;49.500;8.288;2022-10-16T02:41:15;15.60;99.90
23233;DHT22;11785;49.500;8.288;2022-10-16T02:43:40;15.50;99.90
23233;DHT22;11785;49.500;8.288;2022-10-16T02:46:06;15.60;99.90
23233;DHT22;11785;49.500;8.288;2022-10-16T02:48:31;15.60;99.90
23233;DHT22;11785;49.500;8.288;2022-10-16T02:50:57;15.60;99.90
23233;DHT22;11785;49.500;8.288;2022-10-16T02:53:23;15.60;99.90
23233;DHT22;11785;49.500;8.288;2022-10-16T02:55:48;15.60;99.90
23233;DHT22;11785;49.500;8.288;2022-10-16T02:58:14;15.60;99.90
23233;DHT22;11785;49.500;8.288;2022-10-16T03:00:39;15.60;99.90
23233;DHT22;11785;49.500;8.288;2022-10-16T03:03:05;15.60;99.90
23233;DHT22;11785;49.500;8.288;2022-10-16T03:05:30;15.50;99.90
23233;DHT22;11785;49.500;8.288;2022-10-16T03:07:56;15.50;99.90
23233;DHT22;11785;49.500;8.288;2022-10-16T03:10:21;15.50;99.90
23233;DHT22;11785;49.500;8.288;2022-10-16T03:12:47;15.50;99.90
23233;DHT22;11785;49.500;8.288;2022-10-16T03:15:13;15.50;99.90
23233;DHT22;11785;49.500;8.288;2022-10-16T03:17:38;15.50;99.90
23233;DHT22;11785;49.500;8.288;2022-10-16T03:20:04;15.50;99.90
23233;DHT22;11785;49.500;8.288;2022-10-16T03:22:30;15.50;99.90
23233;DHT22;11785;49.500;8.288;2022-10-16T03:24:55;15.50;99.90
23233;DHT22;11785;49.500;8.288;2022-10-16T03:27:21;15.50;99.90
23233;DHT22;11785;49.500;8.288;2022-10-16T03:29:46;15.50;99.90
23233;DHT22;11785;49.500;8.288;2022-10-16T03:32:12;15.50;99.90
23233;DHT22;11785;49.500;8.288;2022-10-16T03:34:37;15.50;99.90
23233;DHT22;11785;49.500;8.288;2022-10-16T03:37:03;15.50;99.90
23233;DHT22;11785;49.500;8.288;2022-10-16T03:39:29;15.50;99.90
23233;DHT22;11785;49.500;8.288;2022-10-16T03:41:54;15.50;99.90
23233;DHT22;11785;49.500;8.288;2022-10-16T03:44:20;15.50;99.90
23233;DHT22;11785;49.500;8.288;2022-10-16T03:46:45;15.50;99.90
23233;DHT22;11785;49.500;8.288;2022-10-16T03:49:11;15.50;99.90
23233;DHT22;11785;49.500;8.288;2022-10-16T03:51:37;15.40;99.90
23233;DHT22;11785;49.500;8.288;2022-10-16T03:54:02;15.40;99.90
23233;DHT22;11785;49.500;8.288;2022-10-16T03:56:28;15.40;99.90
23233;DHT22;11785;49.500;8.288;2022-10-16T03:58:53;15.40;99.90
23233;DHT22;11785;49.500;8.288;2022-10-16T04:01:19;15.40;99.90
23233;DHT22;11785;49.500;8.288;2022-10-16T04:03:44;15.40;99.90
23233;DHT22;11785;49.500;8.288;2022-10-16T04:06:10;15.40;99.90
23233;DHT22;11785;49.500;8.288;2022-10-16T04:08:35;15.30;99.90
23233;DHT22;11785;49.500;8.288;2022-10-16T04:11:02;15.30;99.90
23233;DHT22;11785;49.500;8.288;2022-10-16T04:13:28;15.30;99.90
23233;DHT22;11785;49.500;8.288;2022-10-16T04:15:54;15.20;99.90
23233;DHT22;11785;49.500;8.288;2022-10-16T04:18:19;15.20;99.90
23233;DHT22;11785;49.500;8.288;2022-10-16T04:20:45;15.20;99.90
23233;DHT22;11785;49.500;8.288;2022-10-16T04:23:10;15.20;99.90
23233;DHT22;11785;49.500;8.288;2022-10-16T04:25:36;15.20;99.90
23233;DHT22;11785;49.500;8.288;2022-10-16T04:28:02;15.20;99.90
23233;DHT22;11785;49.500;8.288;2022-10-16T04:30:27;15.20;99.90
23233;DHT22;11785;49.500;8.288;2022-10-16T04:32:53;15.20;99.90
23233;DHT22;11785;49.500;8.288;2022-10-16T04:35:19;15.20;99.90
23233;DHT22;11785;49.500;8.288;2022-10-16T04:37:45;15.20;99.90
23233;DHT22;11785;49.500;8.288;2022-10-16T04:40:11;15.20;99.90
23233;DHT22;11785;49.500;8.288;2022-10-16T04:42:37;15.20;99.90
23233;DHT22;11785;49.500;8.288;2022-10-16T04:45:03;15.20;99.90
23233;DHT22;11785;49.500;8.288;2022-10-16T04:47:29;15.20;99.90
23233;DHT22;11785;49.500;8.288;2022-10-16T04:49:55;15.20;99.90
23233;DHT22;11785;49.500;8.288;2022-10-16T04:52:22;15.20;99.90
23233;DHT22;11785;49.500;8.288;2022-10-16T04:54:49;15.20;99.90
23233;DHT22;11785;49.500;8.288;2022-10-16T04:57:16;15.20;99.90
23233;DHT22;11785;49.500;8.288;2022-10-16T04:59:41;15.20;99.90
23233;DHT22;11785;49.500;8.288;2022-10-16T05:02:07;15.20;99.90
23233;DHT22;11785;49.500;8.288;2022-10-16T05:04:32;15.20;99.90
23233;DHT22;11785;49.500;8.288;2022-10-16T05:06:58;15.20;99.90
23233;DHT22;11785;49.500;8.288;2022-10-16T05:09:24;15.10;99.90
23233;DHT22;11785;49.500;8.288;2022-10-16T05:11:49;15.20;99.90
23233;DHT22;11785;49.500;8.288;2022-10-16T05:14:15;15.20;99.90
23233;DHT22;11785;49.500;8.288;2022-10-16T05:16:40;15.20;99.90
23233;DHT22;11785;49.500;8.288;2022-10-16T05:19:06;15.20;99.90
23233;DHT22;11785;49.500;8.288;2022-10-16T05:21:32;15.20;99.90
23233;DHT22;11785;49.500;8.288;2022-10-16T05:23:57;15.20;99.90
23233;DHT22;11785;49.500;8.288;2022-10-16T05:26:23;15.20;99.90
23233;DHT22;11785;49.500;8.288;2022-10-16T05:28:49;15.20;99.90
23233;DHT22;11785;49.500;8.288;2022-10-16T05:31:15;15.20;99.90
23233;DHT22;11785;49.500;8.288;2022-10-16T05:33:40;15.20;99.90
23233;DHT22;11785;49.500;8.288;2022-10-16T05:36:08;15.20;99.90
23233;DHT22;11785;49.500;8.288;2022-10-16T05:38:35;15.10;99.90
23233;DHT22;11785;49.500;8.288;2022-10-16T05:41:01;15.10;99.90
23233;DHT22;11785;49.500;8.288;2022-10-16T05:43:28;15.20;99.90
23233;DHT22;11785;49.500;8.288;2022-10-16T05:46:02;15.10;99.90
23233;DHT22;11785;49.500;8.288;2022-10-16T05:48:28;15.20;99.90
23233;DHT22;11785;49.500;8.288;2022-10-16T05:51:01;15.10;99.90
23233;DHT22;11785;49.500;8.288;2022-10-16T05:53:29;15.20;99.90
23233;DHT22;11785;49.500;8.288;2022-10-16T05:55:55;15.20;99.90
23233;DHT22;11785;49.500;8.288;2022-10-16T05:58:22;15.10;99.90
23233;DHT22;11785;49.500;8.288;2022-10-16T06:00:59;15.10;99.90
23233;DHT22;11785;49.500;8.288;2022-10-16T06:03:25;15.10;99.90
23233;DHT22;11785;49.500;8.288;2022-10-16T06:05:51;15.10;99.90
23233;DHT22;11785;49.500;8.288;2022-10-16T06:08:18;15.10;99.90
23233;DHT22;11785;49.500;8.288;2022-10-16T06:10:44;15.10;99.90
23233;DHT22;11785;49.500;8.288;2022-10-16T06:13:11;15.10;99.90
23233;DHT22;11785;49.500;8.288;2022-10-16T06:15:38;15.10;99.90
23233;DHT22;11785;49.500;8.288;2022-10-16T06:18:05;15.10;99.90
23233;DHT22;11785;49.500;8.288;2022-10-16T06:20:30;15.20;99.90
23233;DHT22;11785;49.500;8.288;2022-10-16T06:22:56;15.10;99.90
23233;DHT22;11785;49.500;8.288;2022-10-16T06:25:22;15.10;99.90
23233;DHT22;11785;49.500;8.288;2022-10-16T06:27:48;15.20;99.90
23233;DHT22;11785;49.500;8.288;2022-10-16T06:30:13;15.20;99.90
23233;DHT22;11785;49.500;8.288;2022-10-16T06:32:39;15.30;99.90
23233;DHT22;11785;49.500;8.288;2022-10-16T06:35:04;15.20;99.90
23233;DHT22;11785;49.500;8.288;2022-10-16T06:37:30;15.30;99.90
23233;DHT22;11785;49.500;8.288;2022-10-16T06:39:56;15.30;99.90
23233;DHT22;11785;49.500;8.288;2022-10-16T06:42:21;15.40;99.90
23233;DHT22;11785;49.500;8.288;2022-10-16T06:44:47;15.40;99.90
23233;DHT22;11785;49.500;8.288;2022-10-16T06:47:12;15.40;99.90
23233;DHT22;11785;49.500;8.288;2022-10-16T06:49:38;15.50;99.90
23233;DHT22;11785;49.500;8.288;2022-10-16T06:52:03;15.50;99.90
23233;DHT22;11785;49.500;8.288;2022-10-16T06:54:30;15.50;99.90
23233;DHT22;11785;49.500;8.288;2022-10-16T06:56:55;15.50;99.90
23233;DHT22;11785;49.500;8.288;2022-10-16T06:59:21;15.50;99.90
23233;DHT22;11785;49.500;8.288;2022-10-16T07:01:47;15.50;99.90
23233;DHT22;11785;49.500;8.288;2022-10-16T07:04:13;15.60;99.90
23233;DHT22;11785;49.500;8.288;2022-10-16T07:06:39;15.60;99.90
23233;DHT22;11785;49.500;8.288;2022-10-16T07:09:06;15.60;99.90
23233;DHT22;11785;49.500;8.288;2022-10-16T07:11:34;15.70;99.90
23233;DHT22;11785;49.500;8.288;2022-10-16T07:14:00;15.70;99.90
23233;DHT22;11785;49.500;8.288;2022-10-16T07:16:27;15.70;99.90
23233;DHT22;11785;49.500;8.288;2022-10-16T07:18:58;15.80;99.90
23233;DHT22;11785;49.500;8.288;2022-10-16T07:21:25;15.80;99.90
23233;DHT22;11785;49.500;8.288;2022-10-16T07:23:55;15.80;99.90
23233;DHT22;11785;49.500;8.288;2022-10-16T07:26:22;15.90;99.90
23233;DHT22;11785;49.500;8.288;2022-10-16T07:28:48;15.90;99.90
23233;DHT22;11785;49.500;8.288;2022-10-16T07:31:15;15.90;99.90
23233;DHT22;11785;49.500;8.288;2022-10-16T07:33:42;15.90;99.90
23233;DHT22;11785;49.500;8.288;2022-10-16T07:36:09;16.00;99.90
23233;DHT22;11785;49.500;8.288;2022-10-16T07:38:35;15.90;99.90
23233;DHT22;11785;49.500;8.288;2022-10-16T07:41:04;15.90;99.90
23233;DHT22;11785;49.500;8.288;2022-10-16T07:43:30;16.00;99.90
23233;DHT22;11785;49.500;8.288;2022-10-16T07:45:56;16.00;99.90
23233;DHT22;11785;49.500;8.288;2022-10-16T07:48:22;16.00;99.90
23233;DHT22;11785;49.500;8.288;2022-10-16T07:50:48;16.00;99.90
23233;DHT22;11785;49.500;8.288;2022-10-16T07:53:14;16.10;99.90
23233;DHT22;11785;49.500;8.288;2022-10-16T07:55:40;16.20;99.70
23233;DHT22;11785;49.500;8.288;2022-10-16T07:58:06;16.20;99.70
23233;DHT22;11785;49.500;8.288;2022-10-16T08:00:32;16.30;99.50
23233;DHT22;11785;49.500;8.288;2022-10-16T08:02:58;16.20;99.80
23233;DHT22;11785;49.500;8.288;2022-10-16T08:05:32;16.10;99.90
23233;DHT22;11785;49.500;8.288;2022-10-16T08:07:58;16.10;99.90
23233;DHT22;11785;49.500;8.288;2022-10-16T08:10:25;16.10;99.90
23233;DHT22;11785;49.500;8.288;2022-10-16T08:12:51;16.10;99.90
23233;DHT22;11785;49.500;8.288;2022-10-16T08:15:18;16.10;99.90
23233;DHT22;11785;49.500;8.288;2022-10-16T08:17:43;16.00;99.90
23233;DHT22;11785;49.500;8.288;2022-10-16T08:20:10;16.00;99.90
23233;DHT22;11785;49.500;8.288;2022-10-16T08:22:35;16.00;99.90
23233;DHT22;11785;49.500;8.288;2022-10-16T08:25:01;16.00;99.90
23233;DHT22;11785;49.500;8.288;2022-10-16T08:27:31;16.00;99.90
23233;DHT22;11785;49.500;8.288;2022-10-16T08:29:57;16.00;99.90
23233;DHT22;11785;49.500;8.288;2022-10-16T08:32:23;16.00;99.90
23233;DHT22;11785;49.500;8.288;2022-10-16T08:34:48;16.00;99.90
23233;DHT22;11785;49.500;8.288;2022-10-16T08:37:14;15.90;99.90
23233;DHT22;11785;49.500;8.288;2022-10-16T08:39:40;15.90;99.90
23233;DHT22;11785;49.500;8.288;2022-10-16T08:42:42;15.80;99.90
23233;DHT22;11785;49.500;8.288;2022-10-16T08:48:09;15.80;99.90
23233;DHT22;11785;49.500;8.288;2022-10-16T08:50:38;15.90;99.90
23233;DHT22;11785;49.500;8.288;2022-10-16T08:53:05;16.10;99.90
23233;DHT22;11785;49.500;8.288;2022-10-16T08:55:50;16.30;99.70
23233;DHT22;11785;49.500;8.288;2022-10-16T08:58:19;16.60;98.90
23233;DHT22;11785;49.500;8.288;2022-10-16T09:01:05;16.90;98.00
23233;DHT22;11785;49.500;8.288;2022-10-16T09:03:52;17.10;97.50
23233;DHT22;11785;49.500;8.288;2022-10-16T09:06:40;17.20;97.30
23233;DHT22;11785;49.500;8.288;2022-10-16T09:12:12;17.30;97.20
23233;DHT22;11785;49.500;8.288;2022-10-16T09:17:49;17.70;95.70
23233;DHT22;11785;49.500;8.288;2022-10-16T09:23:17;18.00;94.20
23233;DHT22;11785;49.500;8.288;2022-10-16T09:25:44;18.10;93.30
23233;DHT22;11785;49.500;8.288;2022-10-16T09:28:10;18.50;92.50
23233;DHT22;11785;49.500;8.288;2022-10-16T09:30:36;18.70;91.10
23233;DHT22;11785;49.500;8.288;2022-10-16T09:33:03;18.60;91.00
23233;DHT22;11785;49.500;8.288;2022-10-16T09:35:40;18.50;91.20
23233;DHT22;11785;49.500;8.288;2022-10-16T09:38:07;18.30;91.90
23233;DHT22;11785;49.500;8.288;2022-10-16T09:40:36;18.10;92.40
23233;DHT22;11785;49.500;8.288;2022-10-16T09:43:12;18.10;92.60
23233;DHT22;11785;49.500;8.288;2022-10-16T09:45:43;18.10;92.80
23233;DHT22;11785;49.500;8.288;2022-10-16T09:48:19;18.40;92.60
23233;DHT22;11785;49.500;8.288;2022-10-16T09:50:58;18.80;91.10
23233;DHT22;11785;49.500;8.288;2022-10-16T09:53:43;19.10;89.20
23233;DHT22;11785;49.500;8.288;2022-10-16T09:56:11;19.20;87.10
23233;DHT22;11785;49.500;8.288;2022-10-16T09:58:42;19.50;85.30
23233;DHT22;11785;49.500;8.288;2022-10-16T10:01:14;19.70;82.70
23233;DHT22;11785;49.500;8.288;2022-10-16T10:03:42;19.90;81.90
23233;DHT22;11785;49.500;8.288;2022-10-16T10:06:29;19.80;80.50
23233;DHT22;11785;49.500;8.288;2022-10-16T10:09:05;20.20;79.10
23233;DHT22;11785;49.500;8.288;2022-10-16T10:11:45;20.30;76.10
23233;DHT22;11785;49.500;8.288;2022-10-16T10:17:01;20.80;73.70
23233;DHT22;11785;49.500;8.288;2022-10-16T10:19:28;21.20;70.90
23233;DHT22;11785;49.500;8.288;2022-10-16T10:21:53;21.30;67.30
23233;DHT22;11785;49.500;8.288;2022-10-16T10:24:19;21.10;68.00
23233;DHT22;11785;49.500;8.288;2022-10-16T10:26:50;20.70;71.20
23233;DHT22;11785;49.500;8.288;2022-10-16T10:29:49;20.50;72.90
23233;DHT22;11785;49.500;8.288;2022-10-16T10:32:28;20.00;76.90
23233;DHT22;11785;49.500;8.288;2022-10-16T10:37:44;19.50;82.10
23233;DHT22;11785;49.500;8.288;2022-10-16T10:43:01;19.50;84.00
23233;DHT22;11785;49.500;8.288;2022-10-16T10:45:52;19.90;80.50
23233;DHT22;11785;49.500;8.288;2022-10-16T10:51:39;20.50;72.80
23233;DHT22;11785;49.500;8.288;2022-10-16T10:54:14;20.40;72.80
23233;DHT22;11785;49.500;8.288;2022-10-16T10:56:58;20.30;75.40
23233;DHT22;11785;49.500;8.288;2022-10-16T11:07:48;21.30;68.20
23233;DHT22;11785;49.500;8.288;2022-10-16T11:10:16;21.50;63.80
23233;DHT22;11785;49.500;8.288;2022-10-16T11:12:52;21.40;64.80
23233;DHT22;11785;49.500;8.288;2022-10-16T11:15:29;21.60;63.90
23233;DHT22;11785;49.500;8.288;2022-10-16T11:20:30;22.00;60.80
23233;DHT22;11785;49.500;8.288;2022-10-16T11:23:11;22.10;60.10
23233;DHT22;11785;49.500;8.288;2022-10-16T11:25:40;22.30;59.90
23233;DHT22;11785;49.500;8.288;2022-10-16T11:28:18;22.60;59.80
23233;DHT22;11785;49.500;8.288;2022-10-16T11:31:11;22.60;59.80
23233;DHT22;11785;49.500;8.288;2022-10-16T11:36:50;22.90;59.70
23233;DHT22;11785;49.500;8.288;2022-10-16T11:39:28;23.00;59.70
23233;DHT22;11785;49.500;8.288;2022-10-16T11:42:22;23.00;59.60
23233;DHT22;11785;49.500;8.288;2022-10-16T11:45:02;23.30;59.60
23233;DHT22;11785;49.500;8.288;2022-10-16T11:47:44;23.90;59.40
23233;DHT22;11785;49.500;8.288;2022-10-16T11:50:31;24.70;59.20
23233;DHT22;11785;49.500;8.288;2022-10-16T11:53:13;24.90;59.10
23233;DHT22;11785;49.500;8.288;2022-10-16T11:55:43;25.00;48.40
23233;DHT22;11785;49.500;8.288;2022-10-16T12:03:42;24.70;59.00
23233;DHT22;11785;49.500;8.288;2022-10-16T12:08:46;24.20;59.10
23233;DHT22;11785;49.500;8.288;2022-10-16T12:16:39;22.90;59.50
23233;DHT22;11785;49.500;8.288;2022-10-16T12:19:17;22.60;59.60
23233;DHT22;11785;49.500;8.288;2022-10-16T12:21:43;22.50;59.60
23233;DHT22;11785;49.500;8.288;2022-10-16T12:24:38;22.50;59.60
23233;DHT22;11785;49.500;8.288;2022-10-16T12:27:29;22.40;59.70
23233;DHT22;11785;49.500;8.288;2022-10-16T12:30:04;22.30;59.70
23233;DHT22;11785;49.500;8.288;2022-10-16T12:32:38;22.10;59.80
23233;DHT22;11785;49.500;8.288;2022-10-16T12:35:06;22.20;59.80
23233;DHT22;11785;49.500;8.288;2022-10-16T12:37:42;22.60;59.70
23233;DHT22;11785;49.500;8.288;2022-10-16T12:40:16;23.20;59.50
23233;DHT22;11785;49.500;8.288;2022-10-16T12:42:48;23.80;59.40
23233;DHT22;11785;49.500;8.288;2022-10-16T12:45:33;24.10;59.20
23233;DHT22;11785;49.500;8.288;2022-10-16T12:48:18;24.40;59.20
23233;DHT22;11785;49.500;8.288;2022-10-16T12:50:44;24.20;59.20
23233;DHT22;11785;49.500;8.288;2022-10-16T12:53:35;23.80;59.30
23233;DHT22;11785;49.500;8.288;2022-10-16T12:58:51;23.10;59.50
23233;DHT22;11785;49.500;8.288;2022-10-16T13:01:29;22.80;59.60
23233;DHT22;11785;49.500;8.288;2022-10-16T13:04:21;22.40;59.70
23233;DHT22;11785;49.500;8.288;2022-10-16T13:06:57;22.10;59.80
23233;DHT22;11785;49.500;8.288;2022-10-16T13:15:27;21.40;61.50
23233;DHT22;11785;49.500;8.288;2022-10-16T13:23:17;21.00;66.00
23233;DHT22;11785;49.500;8.288;2022-10-16T13:29:14;20.90;66.10
23233;DHT22;11785;49.500;8.288;2022-10-16T13:31:40;20.90;67.00
23233;DHT22;11785;49.500;8.288;2022-10-16T13:34:14;21.00;66.80
23233;DHT22;11785;49.500;8.288;2022-10-16T13:36:47;21.00;66.70
23233;DHT22;11785;49.500;8.288;2022-10-16T13:39:27;21.00;66.50
23233;DHT22;11785;49.500;8.288;2022-10-16T13:42:10;21.00;66.90
23233;DHT22;11785;49.500;8.288;2022-10-16T13:44:43;21.00;66.90
23233;DHT22;11785;49.500;8.288;2022-10-16T13:47:35;21.10;66.60
23233;DHT22;11785;49.500;8.288;2022-10-16T13:50:09;21.10;66.60
23233;DHT22;11785;49.500;8.288;2022-10-16T13:52:36;20.90;67.60
23233;DHT22;11785;49.500;8.288;2022-10-16T13:55:04;20.90;67.70
23233;DHT22;11785;49.500;8.288;2022-10-16T13:57:33;20.80;68.50
23233;DHT22;11785;49.500;8.288;2022-10-16T13:59:58;20.70;69.50
23233;DHT22;11785;49.500;8.288;2022-10-16T14:02:33;20.70;69.50
23233;DHT22;11785;49.500;8.288;2022-10-16T14:05:02;20.70;69.80
23233;DHT22;11785;49.500;8.288;2022-10-16T14:07:31;20.70;70.10
23233;DHT22;11785;49.500;8.288;2022-10-16T14:10:02;20.80;69.50
23233;DHT22;11785;49.500;8.288;2022-10-16T14:12:28;20.90;68.90
23233;DHT22;11785;49.500;8.288;2022-10-16T14:14:55;20.90;68.70
23233;DHT22;11785;49.500;8.288;2022-10-16T14:19:58;21.00;68.20
23233;DHT22;11785;49.500;8.288;2022-10-16T14:24:59;20.90;68.90
23233;DHT22;11785;49.500;8.288;2022-10-16T14:27:33;20.80;69.70
23233;DHT22;11785;49.500;8.288;2022-10-16T14:32:42;20.80;70.50
23233;DHT22;11785;49.500;8.288;2022-10-16T14:35:29;20.80;71.40
23233;DHT22;11785;49.500;8.288;2022-10-16T14:37:56;20.70;71.20
23233;DHT22;11785;49.500;8.288;2022-10-16T14:40:25;20.70;71.40
23233;DHT22;11785;49.500;8.288;2022-10-16T14:42:52;20.70;71.40
23233;DHT22;11785;49.500;8.288;2022-10-16T14:45:27;20.80;70.70
23233;DHT22;11785;49.500;8.288;2022-10-16T14:48:05;20.80;70.00
23233;DHT22;11785;49.500;8.288;2022-10-16T14:50:31;20.80;69.80
23233;DHT22;11785;49.500;8.288;2022-10-16T14:52:58;20.90;69.20
23233;DHT22;11785;49.500;8.288;2022-10-16T14:55:24;21.10;68.00
23233;DHT22;11785;49.500;8.288;2022-10-16T14:57:50;21.20;67.10
23233;DHT22;11785;49.500;8.288;2022-10-16T15:00:17;21.40;63.90
23233;DHT22;11785;49.500;8.288;2022-10-16T15:02:44;21.50;63.70
23233;DHT22;11785;49.500;8.288;2022-10-16T15:05:20;22.40;59.80
23233;DHT22;11785;49.500;8.288;2022-10-16T15:07:46;22.80;59.70
23233;DHT22;11785;49.500;8.288;2022-10-16T15:10:16;22.90;59.60
23233;DHT22;11785;49.500;8.288;2022-10-16T15:12:42;22.90;59.60
23233;DHT22;11785;49.500;8.288;2022-10-16T15:15:25;22.50;59.70
23233;DHT22;11785;49.500;8.288;2022-10-16T15:17:54;22.50;59.70
23233;DHT22;11785;49.500;8.288;2022-10-16T15:20:23;22.50;59.70
23233;DHT22;11785;49.500;8.288;2022-10-16T15:22:49;22.40;59.70
23233;DHT22;11785;49.500;8.288;2022-10-16T15:25:42;22.30;59.70
23233;DHT22;11785;49.500;8.288;2022-10-16T15:28:09;22.10;59.80
23233;DHT22;11785;49.500;8.288;2022-10-16T15:30:35;22.00;59.80
23233;DHT22;11785;49.500;8.288;2022-10-16T15:33:02;21.80;59.90
23233;DHT22;11785;49.500;8.288;2022-10-16T15:35:28;21.60;59.90
23233;DHT22;11785;49.500;8.288;2022-10-16T15:37:54;21.50;59.90
23233;DHT22;11785;49.500;8.288;2022-10-16T15:40:20;21.80;59.90
23233;DHT22;11785;49.500;8.288;2022-10-16T15:42:46;22.30;59.70
23233;DHT22;11785;49.500;8.288;2022-10-16T15:45:12;22.50;59.70
23233;DHT22;11785;49.500;8.288;2022-10-16T15:47:40;22.20;59.70
23233;DHT22;11785;49.500;8.288;2022-10-16T15:50:06;21.80;59.90
23233;DHT22;11785;49.500;8.288;2022-10-16T15:52:32;21.40;60.80
23233;DHT22;11785;49.500;8.288;2022-10-16T15:54:58;21.00;64.30
23233;DHT22;11785;49.500;8.288;2022-10-16T15:57:24;20.70;67.20
23233;DHT22;11785;49.500;8.288;2022-10-16T15:59:50;20.40;70.30
23233;DHT22;11785;49.500;8.288;2022-10-16T16:02:16;20.20;72.00
23233;DHT22;11785;49.500;8.288;2022-10-16T16:04:42;20.00;73.60
23233;DHT22;11785;49.500;8.288;2022-10-16T16:07:07;19.80;75.70
23233;DHT22;11785;49.500;8.288;2022-10-16T16:09:33;19.60;77.70
23233;DHT22;11785;49.500;8.288;2022-10-16T16:11:59;19.40;79.40
23233;DHT22;11785;49.500;8.288;2022-10-16T16:14:26;19.30;80.70
23233;DHT22;11785;49.500;8.288;2022-10-16T16:16:56;19.20;81.50
23233;DHT22;11785;49.500;8.288;2022-10-16T16:19:22;19.10;82.20
23233;DHT22;11785;49.500;8.288;2022-10-16T16:21:48;19.00;83.00
23233;DHT22;11785;49.500;8.288;2022-10-16T16:24:14;18.90;84.00
23233;DHT22;11785;49.500;8.288;2022-10-16T16:26:40;18.80;84.80
23233;DHT22;11785;49.500;8.288;2022-10-16T16:29:12;18.70;85.80
23233;DHT22;11785;49.500;8.288;2022-10-16T16:31:39;18.60;87.00
23233;DHT22;11785;49.500;8.288;2022-10-16T16:34:05;18.50;88.20
23233;DHT22;11785;49.500;8.288;2022-10-16T16:36:31;18.40;89.40
23233;DHT22;11785;49.500;8.288;2022-10-16T16:38:57;18.30;90.10
23233;DHT22;11785;49.500;8.288;2022-10-16T16:41:25;18.30;90.20
23233;DHT22;11785;49.500;8.288;2022-10-16T16:43:52;18.10;90.90
23233;DHT22;11785;49.500;8.288;2022-10-16T16:46:18;18.10;91.00
23233;DHT22;11785;49.500;8.288;2022-10-16T16:48:44;18.00;91.40
23233;DHT22;11785;49.500;8.288;2022-10-16T16:51:13;18.00;91.40
23233;DHT22;11785;49.500;8.288;2022-10-16T16:53:42;17.80;91.90
23233;DHT22;11785;49.500;8.288;2022-10-16T16:56:08;17.70;92.30
23233;DHT22;11785;49.500;8.288;2022-10-16T16:58:34;17.60;92.80
23233;DHT22;11785;49.500;8.288;2022-10-16T17:00:59;17.50;93.30
23233;DHT22;11785;49.500;8.288;2022-10-16T17:03:28;17.40;93.60
23233;DHT22;11785;49.500;8.288;2022-10-16T17:05:58;17.30;93.90
23233;DHT22;11785;49.500;8.288;2022-10-16T17:08:24;17.20;94.30
23233;DHT22;11785;49.500;8.288;2022-10-16T17:10:50;17.10;94.70
23233;DHT22;11785;49.500;8.288;2022-10-16T17:13:19;17.00;95.10
23233;DHT22;11785;49.500;8.288;2022-10-16T17:15:49;16.90;95.40